Time;durP1;ratioP1;P1;durP2;ratioP2;P2;SDS_P1;SDS_P2;PMS_P1;PMS_P2;Temp;Humidity;BMP_temperature;BMP_pressure;BME280_temperature;BME280_humidity;BME280_pressure;Samples;Min_cycle;Max_cycle;Signal;HPM_P1;HPM_P2
2023/03/15 00:02:11;;;;;;;10.70;7.50;;;;;;;9.62;81.15;98634.08;102599;278;97605;-57
2023/03/15 00:04:51;;;;;;;10.60;7.30;;;;;;;9.61;80.97;98638.27;102549;278;121367;-58
2023/03/15 00:07:29;;;;;;;11.10;6.90;;;;;;;9.62;81.03;98645.23;102532;278;105413;-57
2023/03/15 00:10:03;;;;;;;11.00;7.00;;;;;;;9.62;80.95;98654.86;102557;278;114902;-61
2023/03/15 00:12:42;;;;;;;8.00;6.50;;;;;;;9.61;81.04;98660.38;102594;278;97147;-61
2023/03/15 00:15:19;;;;;;;11.80;6.90;;;;;;;9.66;80.98;98667.20;102531;278;97573;-61
2023/03/15 00:17:56;;;;;;;9.50;6.50;;;;;;;9.71;80.95;98675.33;102569;278;120891;-61
2023/03/15 00:20:31;;;;;;;12.00;7.50;;;;;;;9.75;80.90;98685.27;102588;278;105493;-61
2023/03/15 00:23:08;;;;;;;11.00;7.40;;;;;;;9.74;80.94;98687.02;102554;278;114734;-61
2023/03/15 00:25:46;;;;;;;11.20;8.10;;;;;;;9.74;80.84;98690.58;102589;278;93792;-60
2023/03/15 00:28:20;;;;;;;10.50;7.70;;;;;;;9.74;80.60;98700.21;102561;278;97846;-61
2023/03/15 00:31:08;;;;;;;11.80;8.40;;;;;;;9.72;80.75;98708.80;102648;278;121503;-60
2023/03/15 00:33:47;;;;;;;12.30;9.00;;;;;;;9.71;80.82;98708.96;102610;278;104619;-60
2023/03/15 00:36:27;;;;;;;6.20;3.80;;;;;;;9.61;80.63;98758.67;102585;278;112462;-58
2023/03/15 00:39:03;;;;;;;3.80;2.60;;;;;;;9.23;79.61;98781.22;102622;278;93542;-58
2023/03/15 00:41:44;;;;;;;4.70;2.10;;;;;;;8.86;79.16;98799.60;102637;278;96524;-58
2023/03/15 00:44:24;;;;;;;2.10;1.50;;;;;;;8.47;78.40;98828.73;102582;278;120662;-58
2023/03/15 00:47:01;;;;;;;1.70;1.10;;;;;;;8.21;77.76;98841.44;102590;278;105384;-57
2023/03/15 00:49:41;;;;;;;2.00;1.30;;;;;;;7.84;77.39;98867.30;102624;278;114662;-58
2023/03/15 00:52:20;;;;;;;2.00;1.20;;;;;;;7.56;77.45;98881.63;102614;278;92946;-62
2023/03/15 00:54:59;;;;;;;2.10;1.00;;;;;;;7.19;77.62;98886.65;102607;275;96733;-62
2023/03/15 00:57:38;;;;;;;2.10;1.20;;;;;;;6.97;77.75;98904.69;102619;278;122144;-62
2023/03/15 01:00:19;;;;;;;1.80;0.90;;;;;;;6.71;78.07;98924.59;102637;278;106120;-60
2023/03/15 01:02:59;;;;;;;1.90;1.20;;;;;;;6.48;78.51;98932.09;102579;278;115226;-60
2023/03/15 01:05:37;;;;;;;1.60;0.80;;;;;;;6.30;78.71;98945.91;102625;278;97987;-58
2023/03/15 01:08:12;;;;;;;1.80;0.90;;;;;;;6.24;79.13;98958.94;102563;277;97105;-58
2023/03/15 01:10:56;;;;;;;2.00;0.80;;;;;;;6.21;79.00;98963.61;102599;278;120756;-57
2023/03/15 01:13:37;;;;;;;1.90;1.00;;;;;;;6.03;79.26;98977.77;102612;278;106159;-58
2023/03/15 01:16:20;;;;;;;0.80;0.70;;;;;;;5.77;79.72;98989.38;102593;278;114165;-61
2023/03/15 01:19:05;;;;;;;1.60;0.80;;;;;;;5.59;79.90;99004.02;102564;277;94583;-61
2023/03/15 01:21:46;;;;;;;1.50;0.80;;;;;;;5.53;79.85;99012.80;102609;278;98411;-58
2023/03/15 01:24:21;;;;;;;1.80;0.90;;;;;;;5.36;80.09;99030.58;102589;278;119774;-59
2023/03/15 01:27:01;;;;;;;1.80;0.80;;;;;;;5.33;80.10;99049.00;102618;278;106358;-59
2023/03/15 01:29:41;;;;;;;3.10;1.00;;;;;;;5.28;80.20;99051.58;102572;278;113809;-60
2023/03/15 01:32:19;;;;;;;1.30;0.90;;;;;;;5.13;80.31;99064.38;102547;278;95702;-61
2023/03/15 01:34:59;;;;;;;1.30;0.80;;;;;;;4.97;80.48;99076.15;102581;278;96803;-58
2023/03/15 01:37:39;;;;;;;1.60;0.80;;;;;;;4.93;80.69;99091.69;102548;278;121062;-58
2023/03/15 01:40:16;;;;;;;1.40;0.70;;;;;;;4.92;81.02;99091.98;102563;278;105979;-61
2023/03/15 01:43:21;;;;;;;2.40;0.80;;;;;;;4.95;80.73;99105.14;102593;278;113123;-61
2023/03/15 01:46:22;;;;;;;1.40;1.00;;;;;;;4.83;80.76;99115.15;102552;278;93441;-60
2023/03/15 01:49:11;;;;;;;3.20;1.10;;;;;;;4.79;80.79;99121.38;102570;278;97026;-59
2023/03/15 01:51:54;;;;;;;1.80;1.10;;;;;;;4.68;80.82;99122.29;102564;278;120686;-60
2023/03/15 01:54:40;;;;;;;2.30;1.20;;;;;;;4.60;80.75;99123.24;102563;278;106002;-61
2023/03/15 01:57:21;;;;;;;3.40;1.40;;;;;;;4.50;81.00;99132.95;102597;278;114511;-58
2023/03/15 02:00:01;;;;;;;2.40;1.10;;;;;;;4.41;81.20;99147.98;102562;278;94468;-56
2023/03/15 02:02:45;;;;;;;5.40;1.40;;;;;;;4.35;81.15;99156.52;102579;278;97586;-56
2023/03/15 02:05:26;;;;;;;2.80;1.20;;;;;;;4.27;81.34;99173.38;102560;278;120438;-62
2023/03/15 02:08:04;;;;;;;1.30;0.80;;;;;;;4.31;81.54;99188.67;102555;278;105544;-61
2023/03/15 02:10:48;;;;;;;3.20;1.00;;;;;;;4.22;81.51;99201.65;102479;278;114854;-60
2023/03/15 02:13:29;;;;;;;2.80;0.80;;;;;;;4.24;81.56;99214.92;102560;278;95744;-60
2023/03/15 02:16:07;;;;;;;1.90;0.80;;;;;;;4.26;81.30;99225.41;102581;278;96546;-56
2023/03/15 02:18:41;;;;;;;1.90;0.90;;;;;;;4.28;81.34;99236.41;102516;278;119972;-57
2023/03/15 02:21:35;;;;;;;2.80;0.90;;;;;;;4.34;81.35;99248.95;102587;278;104261;-59
2023/03/15 02:24:28;;;;;;;2.70;1.10;;;;;;;4.32;81.23;99258.05;102526;278;114095;-59
2023/03/15 02:27:06;;;;;;;2.60;1.10;;;;;;;4.24;81.13;99261.88;102510;278;95960;-60
2023/03/15 02:29:46;;;;;;;3.50;1.00;;;;;;;4.19;81.19;99261.63;102551;278;97168;-58
2023/03/15 02:32:27;;;;;;;2.40;0.90;;;;;;;4.11;81.09;99276.04;102555;278;118998;-61
2023/03/15 02:35:02;;;;;;;1.90;0.90;;;;;;;4.15;80.99;99276.15;102577;278;104376;-58
2023/03/15 02:37:44;;;;;;;3.60;0.80;;;;;;;4.05;80.80;99279.30;102529;278;115054;-60
2023/03/15 02:40:26;;;;;;;3.40;1.20;;;;;;;3.99;80.80;99294.23;102580;278;94880;-56
2023/03/15 02:43:11;;;;;;;3.10;0.90;;;;;;;3.96;80.92;99305.08;102496;278;97930;-58
2023/03/15 02:45:53;;;;;;;3.10;0.90;;;;;;;3.99;80.75;99316.92;102553;278;120944;-61
2023/03/15 02:48:32;;;;;;;5.30;1.00;;;;;;;4.04;80.86;99321.84;102570;277;104519;-61
2023/03/15 02:51:19;;;;;;;2.80;0.90;;;;;;;4.07;80.70;99330.17;102596;278;113281;-60
2023/03/15 02:54:00;;;;;;;4.60;1.20;;;;;;;4.07;80.58;99338.73;102519;278;95211;-61
2023/03/15 02:56:36;;;;;;;6.60;1.30;;;;;;;4.06;80.56;99339.88;102564;277;96020;-56
2023/03/15 02:59:14;;;;;;;5.50;1.20;;;;;;;4.08;80.45;99346.08;102510;277;121357;-56
2023/03/15 03:01:58;;;;;;;3.40;1.00;;;;;;;4.11;80.45;99355.02;102554;278;105458;-56
2023/03/15 03:04:37;;;;;;;4.70;1.10;;;;;;;4.09;80.32;99364.91;102492;278;114230;-56
2023/03/15 03:07:12;;;;;;;3.60;1.10;;;;;;;4.07;80.34;99365.66;102561;278;94800;-61
2023/03/15 03:09:52;;;;;;;3.10;1.10;;;;;;;4.08;80.27;99364.77;102573;277;96666;-59
2023/03/15 03:12:30;;;;;;;3.00;1.00;;;;;;;4.06;80.30;99380.33;102597;278;121404;-60
2023/03/15 03:15:08;;;;;;;4.60;1.10;;;;;;;4.04;80.30;99392.48;102618;278;105855;-60
2023/03/15 03:17:49;;;;;;;5.40;1.20;;;;;;;4.05;80.33;99404.91;102593;278;114624;-60
2023/03/15 03:20:32;;;;;;;4.30;1.30;;;;;;;4.06;80.26;99406.24;102606;278;95887;-59
2023/03/15 03:23:06;;;;;;;4.70;1.40;;;;;;;4.04;80.21;99401.60;102586;278;97886;-59
2023/03/15 03:25:41;;;;;;;;;;;;;;;4.01;80.21;99397.48;102614;278;120909;-62
2023/03/15 03:28:18;;;;;;;5.00;2.10;;;;;;;4.01;80.22;99401.92;102585;266;107439;-61
2023/03/15 03:30:55;;;;;;;3.60;1.00;;;;;;;4.02;80.28;99407.00;102540;278;114300;-60
2023/03/15 03:33:33;;;;;;;3.80;1.00;;;;;;;4.06;80.37;99434.94;102542;270;96007;-60
2023/03/15 03:36:12;;;;;;;2.40;1.60;;;;;;;4.07;80.34;99438.21;102612;278;97699;-59
2023/03/15 03:38:56;;;;;;;5.70;1.10;;;;;;;4.09;80.26;99441.61;102554;278;120552;-59
2023/03/15 03:41:36;;;;;;;6.50;1.80;;;;;;;4.09;80.28;99442.71;102594;278;106147;-59
2023/03/15 03:44:10;;;;;;;3.70;1.30;;;;;;;4.05;80.41;99445.73;102572;278;114982;-60
2023/03/15 03:46:47;;;;;;;4.90;1.60;;;;;;;4.11;80.40;99448.23;102633;278;91924;-56
2023/03/15 03:49:27;;;;;;;4.90;2.10;;;;;;;4.14;80.41;99451.82;102569;278;96561;-56
2023/03/15 03:52:07;;;;;;;4.50;2.70;;;;;;;4.16;80.26;99454.38;102526;278;121000;-59
2023/03/15 03:54:43;;;;;;;7.80;4.20;;;;;;;4.16;80.25;99458.11;102550;278;106033;-59
2023/03/15 03:57:20;;;;;;;8.20;4.10;;;;;;;4.14;80.03;99451.39;102558;278;114437;-56
2023/03/15 03:59:58;;;;;;;11.20;3.90;;;;;;;4.11;80.03;99455.38;102588;278;95767;-61
2023/03/15 04:02:36;;;;;;;6.20;2.60;;;;;;;4.12;80.24;99460.95;102560;278;97912;-61
2023/03/15 04:05:13;;;;;;;6.40;2.40;;;;;;;4.16;80.05;99475.06;102467;278;120456;-57
2023/03/15 04:07:49;;;;;;;6.50;3.70;;;;;;;4.17;80.11;99485.14;102609;278;104210;-56
2023/03/15 04:10:33;;;;;;;8.30;3.50;;;;;;;4.16;80.05;99484.02;102573;278;114317;-60
2023/03/15 04:13:11;;;;;;;10.40;3.50;;;;;;;4.11;80.18;99494.52;102615;278;93598;-62
2023/03/15 04:15:56;;;;;;;6.70;2.70;;;;;;;4.10;80.11;99503.40;102608;278;98205;-58
2023/03/15 04:18:30;;;;;;;;;;;;;;;4.08;80.15;99510.86;102586;278;119836;-56
2023/03/15 04:21:09;;;;;;;6.80;3.20;;;;;;;4.02;80.14;99521.39;102632;278;104290;-59
2023/03/15 04:23:46;;;;;;;4.60;2.90;;;;;;;4.00;80.08;99519.31;102592;278;114298;-59
2023/03/15 04:26:25;;;;;;;6.30;2.90;;;;;;;4.01;79.92;99526.30;102593;278;96211;-58
2023/03/15 04:29:03;;;;;;;6.40;3.10;;;;;;;3.98;79.87;99523.80;102584;270;97610;-59
2023/03/15 04:31:41;;;;;;;7.60;3.10;;;;;;;3.98;79.83;99528.45;102434;278;120990;-59
2023/03/15 04:34:18;;;;;;;8.70;3.30;;;;;;;4.02;79.77;99526.56;102467;279;106061;-59
2023/03/15 04:36:55;;;;;;;6.20;3.00;;;;;;;4.04;79.79;99533.65;102518;278;114859;-57
2023/03/15 04:39:35;;;;;;;5.80;2.70;;;;;;;4.01;79.79;99542.17;102504;278;93911;-56
2023/03/15 04:42:11;;;;;;;7.70;2.70;;;;;;;4.03;79.73;99550.69;102558;270;98072;-59
2023/03/15 04:44:45;;;;;;;7.60;2.90;;;;;;;4.04;79.57;99549.25;102544;278;119125;-60
2023/03/15 04:47:27;;;;;;;6.20;3.10;;;;;;;4.06;79.40;99550.27;102564;279;104566;-60
2023/03/15 04:50:04;;;;;;;6.10;2.90;;;;;;;3.98;79.42;99555.09;102495;278;113110;-55
2023/03/15 04:52:38;;;;;;;;;;;;;;;3.95;79.29;99556.07;102491;279;93317;-55
2023/03/15 04:55:14;;;;;;;7.70;3.00;;;;;;;3.92;79.35;99560.14;102513;278;96238;-60
2023/03/15 04:57:50;;;;;;;6.10;2.80;;;;;;;3.89;78.96;99556.48;102480;279;121627;-59
2023/03/15 05:00:26;;;;;;;6.70;2.80;;;;;;;3.92;78.75;99561.35;102533;278;105663;-56
2023/03/15 05:03:04;;;;;;;4.80;2.40;;;;;;;3.89;78.69;99560.11;102521;267;114203;-56
2023/03/15 05:05:41;;;;;;;7.60;2.70;;;;;;;3.88;78.60;99569.26;102502;279;93592;-61
2023/03/15 05:08:22;;;;;;;5.80;2.50;;;;;;;3.85;78.69;99574.42;102492;278;97249;-61
2023/03/15 05:11:02;;;;;;;7.20;2.60;;;;;;;3.88;78.47;99577.41;102499;278;121343;-61
2023/03/15 05:13:44;;;;;;;7.50;3.00;;;;;;;3.87;78.53;99588.09;102509;279;105171;-60
2023/03/15 05:16:22;;;;;;;4.40;3.00;;;;;;;3.86;78.34;99597.45;102490;278;113384;-56
2023/03/15 05:18:59;;;;;;;8.40;3.10;;;;;;;3.81;78.47;99603.38;102496;279;96128;-55
2023/03/15 05:21:38;;;;;;;8.20;3.10;;;;;;;3.83;78.52;99605.79;102521;278;98014;-56
2023/03/15 05:24:15;;;;;;;9.00;3.00;;;;;;;3.84;78.58;99606.36;102474;278;120462;-57
2023/03/15 05:26:54;;;;;;;6.80;3.10;;;;;;;3.84;78.41;99612.07;102522;278;105629;-58
2023/03/15 05:29:36;;;;;;;10.30;3.30;;;;;;;3.89;78.32;99614.51;102490;278;113779;-57
2023/03/15 05:32:12;;;;;;;;;;;;;;;3.91;78.16;99623.23;102489;278;92448;-55
2023/03/15 05:34:50;;;;;;;8.20;3.90;;;;;;;3.92;78.09;99629.17;102536;278;96344;-55
2023/03/15 05:37:31;;;;;;;11.00;4.70;;;;;;;3.89;77.95;99633.41;102522;278;121265;-56
2023/03/15 05:40:11;;;;;;;9.30;5.60;;;;;;;3.85;77.63;99639.42;102524;279;105703;-56
2023/03/15 05:42:48;;;;;;;9.70;4.30;;;;;;;3.79;77.45;99640.05;102515;278;114143;-56
2023/03/15 05:45:29;;;;;;;9.10;5.10;;;;;;;3.75;77.33;99644.58;102517;278;93255;-56
2023/03/15 05:48:08;;;;;;;6.40;3.80;;;;;;;3.73;77.36;99646.08;102538;278;97854;-57
2023/03/15 05:50:49;;;;;;;10.30;5.00;;;;;;;3.73;77.21;99649.65;102510;278;120641;-57
2023/03/15 05:53:25;;;;;;;10.40;4.20;;;;;;;3.67;77.06;99652.36;102467;279;104836;-58
2023/03/15 05:56:04;;;;;;;13.00;4.30;;;;;;;3.69;77.03;99664.48;102478;278;113524;-56
2023/03/15 05:58:40;;;;;;;6.70;3.70;;;;;;;3.72;77.01;99673.44;102531;279;93653;-55
2023/03/15 06:01:20;;;;;;;14.30;4.70;;;;;;;3.72;77.04;99677.48;102548;278;96732;-60
2023/03/15 06:03:56;;;;;;;11.20;4.40;;;;;;;3.73;76.96;99687.24;102500;278;121178;-60
2023/03/15 06:06:38;;;;;;;8.00;3.70;;;;;;;3.81;76.77;99697.15;102484;278;106229;-55
2023/03/15 06:09:16;;;;;;;7.30;3.40;;;;;;;3.81;76.52;99700.59;102504;278;112585;-56
2023/03/15 06:11:54;;;;;;;9.10;5.50;;;;;;;3.75;76.13;99703.58;102484;279;93909;-55
2023/03/15 06:14:29;;;;;;;12.50;4.80;;;;;;;3.75;76.21;99703.17;102402;279;95370;-56
2023/03/15 06:17:10;;;;;;;8.20;3.80;;;;;;;3.78;76.30;99702.32;102511;278;120728;-61
2023/03/15 06:19:51;;;;;;;12.90;4.00;;;;;;;3.85;76.22;99711.31;102540;266;104359;-59
2023/03/15 06:22:29;;;;;;;10.50;4.60;;;;;;;3.88;76.22;99713.17;102517;278;114213;-60
2023/03/15 06:25:07;;;;;;;9.10;4.30;;;;;;;3.87;76.31;99718.66;102529;278;96369;-57
2023/03/15 06:27:47;;;;;;;8.90;3.90;;;;;;;3.90;76.27;99719.66;102523;278;97191;-56
2023/03/15 06:30:25;;;;;;;9.80;4.50;;;;;;;3.97;76.16;99714.50;102524;278;119719;-60
2023/03/15 06:33:01;;;;;;;8.90;4.10;;;;;;;3.96;76.17;99716.23;102481;278;105501;-61
2023/03/15 06:35:36;;;;;;;8.70;3.80;;;;;;;4.01;76.29;99721.04;102517;278;113703;-56
2023/03/15 06:38:16;;;;;;;11.60;4.50;;;;;;;4.09;76.06;99727.80;102498;279;94150;-56
2023/03/15 06:40:57;;;;;;;13.40;5.80;;;;;;;4.14;75.98;99735.80;102518;278;95808;-61
2023/03/15 06:43:34;;;;;;;9.60;5.10;;;;;;;4.18;75.79;99757.61;102496;279;120432;-61
2023/03/15 06:46:14;;;;;;;9.90;5.10;;;;;;;4.21;75.52;99760.57;102510;279;105167;-57
2023/03/15 06:48:55;;;;;;;11.40;6.90;;;;;;;4.20;75.55;99775.61;102495;278;113392;-57
2023/03/15 06:51:34;;;;;;;9.60;4.90;;;;;;;4.23;75.46;99783.33;102469;278;94259;-59
2023/03/15 06:54:16;;;;;;;11.60;4.90;;;;;;;4.31;75.44;99792.86;102498;278;97967;-60
2023/03/15 06:56:55;;;;;;;8.70;5.20;;;;;;;4.38;75.16;99793.48;102481;279;120545;-56
2023/03/15 06:59:36;;;;;;;9.90;5.40;;;;;;;4.39;75.12;99805.02;102526;278;105265;-57
2023/03/15 07:02:19;;;;;;;13.90;5.20;;;;;;;4.39;75.11;99805.25;102471;278;114107;-56
2023/03/15 07:05:02;;;;;;;8.70;4.90;;;;;;;4.43;75.21;99820.23;102511;278;92269;-57
2023/03/15 07:07:49;;;;;;;9.80;4.90;;;;;;;4.42;75.14;99817.63;102481;278;97971;-56
2023/03/15 07:10:34;;;;;;;11.20;5.30;;;;;;;4.42;75.12;99818.33;102549;278;120332;-55
2023/03/15 07:13:17;;;;;;;11.40;5.20;;;;;;;4.53;75.13;99821.63;102444;278;105908;-56
2023/03/15 07:15:59;;;;;;;16.10;5.70;;;;;;;4.57;74.99;99821.36;102469;278;114461;-56
2023/03/15 07:18:36;;;;;;;12.20;5.20;;;;;;;4.62;74.88;99829.73;102508;279;92911;-55
2023/03/15 07:21:15;;;;;;;11.20;5.00;;;;;;;4.71;74.92;99836.18;102433;278;96909;-55
2023/03/15 07:23:53;;;;;;;9.50;4.60;;;;;;;4.67;74.81;99831.47;102511;278;118978;-55
2023/03/15 07:26:28;;;;;;;12.80;5.80;;;;;;;4.63;74.84;99836.91;102526;278;104402;-56
2023/03/15 07:29:04;;;;;;;11.40;5.40;;;;;;;4.64;74.81;99840.90;102484;278;114622;-57
2023/03/15 07:31:39;;;;;;;13.00;5.80;;;;;;;4.64;74.75;99843.89;102525;275;92685;-56
2023/03/15 07:34:18;;;;;;;11.40;5.40;;;;;;;4.61;74.81;99846.94;102500;267;97899;-57
2023/03/15 07:36:56;;;;;;;11.90;5.90;;;;;;;4.62;74.72;99846.17;102177;278;382588;-60
2023/03/15 07:39:31;;;;;;;14.40;6.90;;;;;;;4.55;74.69;99848.49;102519;278;104029;-59
2023/03/15 07:42:12;;;;;;;15.50;8.10;;;;;;;4.47;74.51;99850.79;102535;278;114350;-56
2023/03/15 07:44:51;;;;;;;15.50;7.80;;;;;;;4.50;74.51;99851.56;102505;278;93335;-56
2023/03/15 07:47:32;;;;;;;12.10;7.80;;;;;;;4.51;74.47;99856.95;102500;278;97796;-56
2023/03/15 07:50:11;;;;;;;13.40;9.50;;;;;;;4.61;74.57;99854.96;102509;278;121036;-56
2023/03/15 07:52:45;;;;;;;15.80;9.60;;;;;;;4.66;74.42;99846.98;102502;278;106000;-56
2023/03/15 07:55:24;;;;;;;15.00;8.60;;;;;;;4.72;74.43;99848.42;102469;278;113559;-59
2023/03/15 07:58:00;;;;;;;11.60;8.10;;;;;;;4.78;74.30;99851.75;102511;278;93856;-60
2023/03/15 08:00:36;;;;;;;12.90;7.60;;;;;;;4.73;74.07;99858.23;102537;278;97807;-61
2023/03/15 08:03:14;;;;;;;12.60;7.30;;;;;;;4.83;74.04;99865.60;102508;278;120626;-60
2023/03/15 08:05:56;;;;;;;14.40;7.70;;;;;;;4.91;73.93;99870.25;102510;278;104365;-59
2023/03/15 08:08:38;;;;;;;13.90;7.00;;;;;;;4.93;73.77;99884.34;102474;278;113307;-59
2023/03/15 08:11:24;;;;;;;13.00;6.80;;;;;;;4.96;73.64;99895.34;102500;278;93011;-57
2023/03/15 08:14:09;;;;;;;10.90;7.50;;;;;;;5.00;73.74;99897.12;102526;278;96791;-56
2023/03/15 08:16:52;;;;;;;14.20;7.10;;;;;;;5.05;73.33;99900.45;102517;278;120518;-58
2023/03/15 08:19:27;;;;;;;13.70;7.10;;;;;;;5.05;73.36;99900.64;102500;278;105500;-59
2023/03/15 08:22:06;;;;;;;14.00;7.40;;;;;;;5.11;73.20;99911.26;102504;279;114123;-56
2023/03/15 08:24:47;;;;;;;13.20;7.70;;;;;;;5.27;73.16;99919.48;102493;278;93596;-56
2023/03/15 08:27:25;;;;;;;15.00;8.00;;;;;;;5.65;72.96;99930.29;102539;278;97429;-62
2023/03/15 08:30:06;;;;;;;10.60;6.80;;;;;;;5.81;72.59;99933.59;102490;279;119856;-56
2023/03/15 08:32:41;;;;;;;11.70;6.90;;;;;;;5.92;72.36;99940.97;102511;279;104713;-57
2023/03/15 08:35:21;;;;;;;12.60;6.80;;;;;;;6.02;72.09;99941.15;102490;278;114468;-58
2023/03/15 08:37:58;;;;;;;13.50;6.70;;;;;;;6.18;71.74;99939.96;102491;279;93040;-59
2023/03/15 08:40:33;;;;;;;14.00;7.00;;;;;;;6.49;71.78;99940.95;102539;278;98377;-59
2023/03/15 08:43:09;;;;;;;11.90;6.70;;;;;;;6.64;71.54;99943.51;102552;278;120467;-60
2023/03/15 08:45:45;;;;;;;11.30;6.90;;;;;;;7.23;71.59;99945.34;102530;278;104184;-60
2023/03/15 08:48:23;;;;;;;11.90;6.10;;;;;;;8.67;71.64;99943.33;102480;279;113641;-60
2023/03/15 08:51:08;;;;;;;8.60;5.70;;;;;;;9.61;70.02;99943.35;102469;278;92667;-53
2023/03/15 08:53:44;;;;;;;;;;;;;;;9.79;68.15;99946.38;102465;279;97510;-57
2023/03/15 08:56:21;;;;;;;11.60;6.90;;;;;;;9.57;67.79;99944.33;102513;278;120576;-63
2023/03/15 08:59:02;;;;;;;10.90;6.10;;;;;;;9.73;67.14;99949.48;102516;278;105469;-60
2023/03/15 09:01:43;;;;;;;8.00;4.70;;;;;;;9.87;66.50;99952.21;102469;278;113919;-56
2023/03/15 09:04:24;;;;;;;6.70;3.80;;;;;;;10.29;66.14;99960.27;102475;279;95260;-57
2023/03/15 09:07:04;;;;;;;9.60;4.20;;;;;;;10.32;65.66;99969.84;102565;278;97975;-59
2023/03/15 09:09:39;;;;;;;6.90;3.90;;;;;;;10.13;64.69;99972.68;102503;278;120011;-60
2023/03/15 09:12:17;;;;;;;6.70;4.00;;;;;;;9.80;63.61;99975.57;102513;278;105166;-62
2023/03/15 09:14:53;;;;;;;8.90;3.90;;;;;;;9.56;62.66;99985.89;102517;278;114659;-58
2023/03/15 09:17:34;;;;;;;7.20;4.70;;;;;;;9.37;63.02;99987.75;102450;278;93100;-57
2023/03/15 09:20:15;;;;;;;10.50;4.10;;;;;;;9.18;62.16;99989.30;102512;278;96683;-57
2023/03/15 09:22:55;;;;;;;6.80;4.50;;;;;;;8.74;62.34;99995.76;102519;278;120437;-58
2023/03/15 09:25:35;;;;;;;8.70;4.30;;;;;;;8.57;62.73;100001.79;102490;278;105292;-57
2023/03/15 09:28:16;;;;;;;10.60;4.90;;;;;;;8.64;63.12;100006.33;102516;278;113610;-58
2023/03/15 09:30:54;;;;;;;10.50;4.20;;;;;;;8.71;63.19;100009.14;102494;278;95055;-60
2023/03/15 09:33:32;;;;;;;9.30;4.90;;;;;;;8.97;63.07;100005.21;102505;278;98383;-61
2023/03/15 09:36:10;;;;;;;9.70;4.50;;;;;;;9.10;63.23;100004.43;102469;278;120550;-61
2023/03/15 09:38:50;;;;;;;11.10;4.60;;;;;;;9.32;62.94;100005.25;102515;278;105985;-61
2023/03/15 09:41:43;;;;;;;11.20;4.40;;;;;;;9.44;62.75;100005.34;102487;279;114980;-61
2023/03/15 09:44:30;;;;;;;8.60;4.00;;;;;;;9.60;61.56;100005.35;102466;278;94525;-61
2023/03/15 09:47:19;;;;;;;10.00;3.80;;;;;;;9.77;61.62;100003.13;102532;278;95888;-57
2023/03/15 09:50:07;;;;;;;7.70;3.40;;;;;;;9.98;60.81;100000.28;102547;278;119985;-58
2023/03/15 09:52:50;;;;;;;8.80;4.00;;;;;;;10.25;60.83;100001.45;102540;278;105373;-58
2023/03/15 09:55:33;;;;;;;11.60;5.30;;;;;;;10.24;60.19;99998.39;102515;278;114070;-62
2023/03/15 09:58:16;;;;;;;9.90;4.60;;;;;;;10.31;59.56;99994.23;102528;278;94578;-60
2023/03/15 10:00:58;;;;;;;6.50;3.40;;;;;;;10.62;59.70;99990.09;102569;279;97800;-57
2023/03/15 10:03:49;;;;;;;9.60;3.60;;;;;;;10.84;59.76;99993.48;102513;278;120307;-58
2023/03/15 10:06:33;;;;;;;12.20;5.30;;;;;;;10.91;59.44;99995.39;102544;278;104021;-62
2023/03/15 10:09:16;;;;;;;9.70;4.20;;;;;;;10.84;58.64;99994.81;102514;278;114114;-63
2023/03/15 10:12:03;;;;;;;8.90;4.10;;;;;;;10.77;58.50;99992.88;102526;278;93753;-61
2023/03/15 10:15:16;;;;;;;6.80;3.90;;;;;;;10.98;58.60;99998.90;102496;278;98095;-61
2023/03/15 10:18:17;;;;;;;7.90;4.30;;;;;;;11.25;58.21;99996.51;102511;278;119745;-62
2023/03/15 10:21:03;;;;;;;7.90;4.10;;;;;;;11.25;57.99;99993.23;102531;278;105860;-57
2023/03/15 10:23:52;;;;;;;8.70;4.20;;;;;;;10.87;57.47;99995.27;102526;278;113098;-57
2023/03/15 10:26:34;;;;;;;8.60;4.50;;;;;;;10.27;56.90;99998.33;102526;279;94041;-57
2023/03/15 10:29:21;;;;;;;11.50;4.90;;;;;;;10.12;56.97;99999.02;102534;282;98225;-57
2023/03/15 10:31:59;;;;;;;10.50;5.60;;;;;;;10.02;57.14;100003.60;102499;279;120059;-58
2023/03/15 10:34:44;;;;;;;7.20;4.40;;;;;;;10.20;57.41;100006.67;102536;278;105777;-57
2023/03/15 10:37:23;;;;;;;12.40;4.90;;;;;;;10.58;57.38;100007.61;102511;266;113884;-62
2023/03/15 10:40:06;;;;;;;10.10;5.00;;;;;;;10.58;55.75;100000.99;102521;279;94953;-61
2023/03/15 10:42:47;;;;;;;10.90;4.50;;;;;;;10.69;56.27;99995.31;102543;278;98583;-60
2023/03/15 10:45:28;;;;;;;7.20;4.20;;;;;;;10.63;56.00;100004.19;102539;279;119058;-61
2023/03/15 10:48:07;;;;;;;7.90;3.80;;;;;;;10.41;55.89;100005.63;102520;279;105930;-61
2023/03/15 10:50:42;;;;;;;9.40;4.70;;;;;;;10.38;55.95;99999.54;102522;267;114808;-58
2023/03/15 10:53:25;;;;;;;9.00;4.40;;;;;;;10.36;55.58;99997.91;102554;278;95285;-57
2023/03/15 10:56:14;;;;;;;8.60;4.40;;;;;;;10.35;55.56;99996.73;102451;279;98392;-61
2023/03/15 10:59:00;;;;;;;7.20;3.60;;;;;;;10.24;55.67;99990.21;102521;278;120095;-62
2023/03/15 11:01:50;;;;;;;6.60;3.50;;;;;;;9.91;55.72;99999.02;102507;278;106183;-62
2023/03/15 11:04:29;;;;;;;7.30;3.90;;;;;;;9.84;55.61;100002.09;102484;278;113971;-60
2023/03/15 11:07:07;;;;;;;7.50;3.70;;;;;;;10.05;55.77;99998.27;102498;279;92824;-58
2023/03/15 11:09:52;;;;;;;8.00;3.70;;;;;;;9.84;55.34;100000.34;102531;279;96322;-60
2023/03/15 11:12:34;;;;;;;10.10;4.40;;;;;;;9.57;55.23;100004.56;102508;279;120144;-61
2023/03/15 11:15:16;;;;;;;7.60;4.20;;;;;;;9.58;55.46;100004.35;102526;279;104089;-62
2023/03/15 11:18:04;;;;;;;8.40;4.20;;;;;;;9.68;55.80;100007.70;102531;279;113350;-62
2023/03/15 11:20:44;;;;;;;6.10;3.80;;;;;;;9.65;55.55;100010.12;102512;279;93632;-60
2023/03/15 11:23:25;;;;;;;8.40;4.30;;;;;;;9.65;55.53;100013.27;102518;279;98079;-61
2023/03/15 11:26:03;;;;;;;9.40;3.80;;;;;;;9.77;55.79;100008.15;102518;279;120905;-61
2023/03/15 11:28:48;;;;;;;10.80;5.40;;;;;;;9.83;55.34;100005.97;102533;279;105121;-63
2023/03/15 11:31:29;;;;;;;7.70;4.50;;;;;;;9.65;55.06;100011.40;102494;279;114244;-63
2023/03/15 11:34:12;;;;;;;6.40;4.00;;;;;;;9.25;55.04;100012.89;102544;268;92924;-63
2023/03/15 11:36:56;;;;;;;9.50;4.60;;;;;;;9.22;55.18;100015.38;102519;279;97879;-62
2023/03/15 11:39:44;;;;;;;7.00;4.50;;;;;;;9.21;55.00;100010.65;102509;279;120853;-61
2023/03/15 11:42:28;;;;;;;9.30;5.40;;;;;;;9.39;54.64;100010.52;102511;279;104587;-63
2023/03/15 11:45:17;;;;;;;7.60;4.50;;;;;;;9.54;55.07;100013.87;102491;279;114584;-62
2023/03/15 11:47:56;;;;;;;7.70;5.30;;;;;;;9.33;54.92;100013.52;102505;279;94337;-62
2023/03/15 11:50:35;;;;;;;9.80;5.20;;;;;;;9.08;55.03;100010.79;102507;279;97012;-62
2023/03/15 11:53:17;;;;;;;9.70;5.80;;;;;;;9.04;55.23;100014.50;102498;268;121500;-63
2023/03/15 11:55:54;;;;;;;7.10;5.70;;;;;;;8.91;55.33;100013.06;102563;278;105141;-58
2023/03/15 11:58:42;;;;;;;10.70;5.00;;;;;;;8.84;55.00;100015.71;102494;279;114507;-58
2023/03/15 12:01:29;;;;;;;12.50;5.90;;;;;;;8.64;55.15;100022.81;102532;279;94924;-62
2023/03/15 12:04:43;;;;;;;6.80;4.70;;;;;;;8.65;55.01;100024.40;102400;279;97053;-63
2023/03/15 12:08:16;;;;;;;8.60;5.40;;;;;;;8.61;55.33;100027.20;102520;279;120448;-63
2023/03/15 12:10:54;;;;;;;8.10;5.00;;;;;;;8.81;55.31;100030.88;102539;279;105612;-63
2023/03/15 12:13:31;;;;;;;8.80;4.50;;;;;;;8.80;55.15;100034.18;102460;279;114798;-62
2023/03/15 12:16:13;;;;;;;9.00;5.10;;;;;;;9.02;54.96;100032.63;102557;279;95357;-62
2023/03/15 12:18:51;;;;;;;11.30;5.80;;;;;;;9.13;54.63;100038.00;102526;279;97786;-63
2023/03/15 12:21:38;;;;;;;11.20;5.50;;;;;;;9.23;54.52;100037.95;102536;279;121586;-59
2023/03/15 12:24:30;;;;;;;8.80;5.60;;;;;;;9.38;54.29;100037.63;102512;279;105824;-58
2023/03/15 12:27:07;;;;;;;8.90;5.10;;;;;;;9.30;54.42;100043.27;102495;279;115151;-58
2023/03/15 12:29:48;;;;;;;7.20;4.40;;;;;;;9.27;53.73;100040.90;102511;279;93302;-61
2023/03/15 12:32:30;;;;;;;6.80;4.50;;;;;;;8.99;54.11;100044.83;102517;267;97973;-61
2023/03/15 12:35:16;;;;;;;7.60;4.00;;;;;;;8.95;54.32;100049.09;102525;279;120384;-61
2023/03/15 12:37:55;;;;;;;9.10;4.40;;;;;;;8.90;54.16;100052.34;102470;279;105490;-63